JST767 YPAD-YSSY
Flight info
| Callsign | JST767 |
|---|---|
| Flight time | 1h 35m |
| Altitude | 37000 |
| Route | AD H247 CULIN Y59 TESAT |
| Aircraft | A320/M-SDE3FGHIRWY/LB1 |
Departure
| Time | 2026-05-05 06:19 |
|---|---|
| Airport | Adelaide International Airport (YPAD) |
Arrival
| Time | 2026-05-05 07:54 |
|---|---|
| Airport | Sydney Kingsford Smith International Airport (YSSY) |
| Time | Latitude | Longitude | Altitude | Speed | Heading |
|---|---|---|---|---|---|
| 2026-05-05 05:46 | -34.94053 | 138.53657 | 27 ft | 0 kts | 319° |
| 2026-05-05 06:07 | -34.94063 | 138.53668 | 24 ft | 3 kts | 319° |
| 2026-05-05 06:07 | -34.94076 | 138.53682 | 25 ft | 3 kts | 319° |
| 2026-05-05 06:08 | -34.94090 | 138.53697 | 25 ft | 3 kts | 336° |
| 2026-05-05 06:08 | -34.94106 | 138.53698 | 24 ft | 2 kts | 50° |
| 2026-05-05 06:08 | -34.94107 | 138.53698 | 24 ft | 0 kts | 54° |
| 2026-05-05 06:15 | -34.94097 | 138.53716 | 22 ft | 6 kts | 54° |
| 2026-05-05 06:15 | -34.94077 | 138.53754 | 22 ft | 6 kts | 61° |
| 2026-05-05 06:16 | -34.94051 | 138.53810 | 21 ft | 9 kts | 61° |
| 2026-05-05 06:16 | -34.94010 | 138.53889 | 22 ft | 12 kts | 55° |
| 2026-05-05 06:16 | -34.93953 | 138.53974 | 24 ft | 14 kts | 50° |
| 2026-05-05 06:16 | -34.93897 | 138.54056 | 21 ft | 11 kts | 50° |
| 2026-05-05 06:17 | -34.93892 | 138.54137 | 21 ft | 10 kts | 127° |
| 2026-05-05 06:17 | -34.93949 | 138.54197 | 22 ft | 12 kts | 140° |
| 2026-05-05 06:17 | -34.94018 | 138.54263 | 23 ft | 14 kts | 148° |
| 2026-05-05 06:17 | -34.94111 | 138.54253 | 23 ft | 15 kts | 216° |
| 2026-05-05 06:18 | -34.94222 | 138.54099 | 23 ft | 49 kts | 230° |
| 2026-05-05 06:18 | -34.94591 | 138.53557 | 16 ft | 114 kts | 230° |
| 2026-05-05 06:18 | -34.95206 | 138.52656 | 42 ft | 159 kts | 230° |
| 2026-05-05 06:18 | -34.95942 | 138.51567 | 379 ft | 179 kts | 230° |
| 2026-05-05 06:19 | -34.96767 | 138.50345 | 999 ft | 187 kts | 231° |
| 2026-05-05 06:19 | -34.97598 | 138.49141 | 1860 ft | 185 kts | 231° |
| 2026-05-05 06:19 | -34.98466 | 138.47885 | 2290 ft | 205 kts | 231° |
| 2026-05-05 06:19 | -34.99439 | 138.46476 | 2675 ft | 229 kts | 231° |
| 2026-05-05 06:20 | -35.00487 | 138.44959 | 2836 ft | 237 kts | 230° |
| 2026-05-05 06:20 | -35.01645 | 138.43411 | 3443 ft | 252 kts | 219° |
| 2026-05-05 06:20 | -35.03188 | 138.42417 | 4429 ft | 255 kts | 197° |
| 2026-05-05 06:20 | -35.04961 | 138.42291 | 4826 ft | 260 kts | 171° |
| 2026-05-05 06:21 | -35.06631 | 138.43164 | 4979 ft | 266 kts | 146° |
| 2026-05-05 06:21 | -35.08091 | 138.44564 | 5633 ft | 272 kts | 142° |
| 2026-05-05 06:21 | -35.09427 | 138.46221 | 6547 ft | 279 kts | 127° |
| 2026-05-05 06:21 | -35.10308 | 138.48361 | 7393 ft | 287 kts | 108° |
| 2026-05-05 06:22 | -35.10593 | 138.50791 | 8242 ft | 293 kts | 88° |
| 2026-05-05 06:22 | -35.10437 | 138.53286 | 9118 ft | 296 kts | 85° |
| 2026-05-05 06:22 | -35.10269 | 138.55808 | 9965 ft | 300 kts | 85° |
| 2026-05-05 06:22 | -35.10100 | 138.58410 | 10429 ft | 318 kts | 85° |
| 2026-05-05 06:23 | -35.09924 | 138.61194 | 10686 ft | 339 kts | 86° |
| 2026-05-05 06:23 | -35.09743 | 138.64115 | 11216 ft | 349 kts | 86° |
| 2026-05-05 06:23 | -35.09559 | 138.67096 | 11897 ft | 354 kts | 86° |
| 2026-05-05 06:23 | -35.09374 | 138.70064 | 12653 ft | 356 kts | 86° |
| 2026-05-05 06:24 | -35.09181 | 138.73103 | 13319 ft | 362 kts | 86° |
| 2026-05-05 06:24 | -35.08982 | 138.76178 | 14041 ft | 365 kts | 85° |
| 2026-05-05 06:24 | -35.08779 | 138.79275 | 14685 ft | 368 kts | 86° |
| 2026-05-05 06:24 | -35.08576 | 138.82407 | 15274 ft | 372 kts | 86° |
| 2026-05-05 06:25 | -35.08370 | 138.85564 | 15916 ft | 374 kts | 85° |
| 2026-05-05 06:25 | -35.08163 | 138.88736 | 16528 ft | 377 kts | 86° |
| 2026-05-05 06:25 | -35.07953 | 138.91945 | 17143 ft | 380 kts | 85° |
| 2026-05-05 06:25 | -35.07743 | 138.95169 | 17798 ft | 383 kts | 85° |
| 2026-05-05 06:26 | -35.07533 | 138.98374 | 18373 ft | 386 kts | 85° |
| 2026-05-05 06:26 | -35.07319 | 139.01654 | 18973 ft | 389 kts | 85° |
| 2026-05-05 06:26 | -35.07103 | 139.04915 | 19498 ft | 393 kts | 85° |
| 2026-05-05 06:26 | -35.06878 | 139.08257 | 20056 ft | 396 kts | 85° |
| 2026-05-05 06:27 | -35.06650 | 139.11612 | 20657 ft | 399 kts | 85° |
| 2026-05-05 06:27 | -35.06184 | 139.18418 | 21776 ft | 405 kts | 85° |
| 2026-05-05 06:27 | -35.05951 | 139.21861 | 22274 ft | 409 kts | 85° |
| 2026-05-05 06:28 | -35.05718 | 139.25335 | 22809 ft | 412 kts | 85° |
| 2026-05-05 06:28 | -35.05482 | 139.28832 | 23327 ft | 415 kts | 85° |
| 2026-05-05 06:28 | -35.05243 | 139.32362 | 23822 ft | 419 kts | 85° |
| 2026-05-05 06:28 | -35.05000 | 139.35916 | 24263 ft | 421 kts | 85° |
| 2026-05-05 06:29 | -35.04751 | 139.39494 | 24670 ft | 425 kts | 85° |
| 2026-05-05 06:29 | -35.04500 | 139.43045 | 25093 ft | 427 kts | 85° |
| 2026-05-05 06:29 | -35.04243 | 139.46659 | 25480 ft | 430 kts | 85° |
| 2026-05-05 06:29 | -35.03984 | 139.50304 | 25888 ft | 432 kts | 84° |
| 2026-05-05 06:30 | -35.03723 | 139.53971 | 26285 ft | 435 kts | 85° |
| 2026-05-05 06:30 | -35.03461 | 139.57658 | 26676 ft | 437 kts | 85° |
| 2026-05-05 06:30 | -35.03197 | 139.61367 | 27049 ft | 440 kts | 85° |
| 2026-05-05 06:30 | -35.02929 | 139.65102 | 27395 ft | 444 kts | 84° |
| 2026-05-05 06:31 | -35.02658 | 139.68867 | 27723 ft | 447 kts | 84° |
| 2026-05-05 06:31 | -35.02388 | 139.72598 | 28075 ft | 450 kts | 84° |
| 2026-05-05 06:31 | -35.02112 | 139.76411 | 28425 ft | 453 kts | 84° |
| 2026-05-05 06:31 | -35.01833 | 139.80249 | 28784 ft | 456 kts | 84° |
| 2026-05-05 06:32 | -35.01551 | 139.84103 | 29124 ft | 459 kts | 84° |
| 2026-05-05 06:32 | -35.01270 | 139.87938 | 29471 ft | 461 kts | 84° |
| 2026-05-05 06:32 | -35.00985 | 139.91849 | 29807 ft | 464 kts | 84° |
| 2026-05-05 06:32 | -35.00695 | 139.95783 | 30144 ft | 467 kts | 84° |
| 2026-05-05 06:33 | -35.00398 | 139.99742 | 30446 ft | 470 kts | 84° |
| 2026-05-05 06:33 | -35.00098 | 140.03728 | 30715 ft | 473 kts | 84° |
| 2026-05-05 06:33 | -34.99797 | 140.07733 | 31010 ft | 475 kts | 84° |
| 2026-05-05 06:33 | -34.99492 | 140.11743 | 31384 ft | 475 kts | 84° |
| 2026-05-05 06:34 | -34.99189 | 140.15751 | 31762 ft | 475 kts | 84° |
| 2026-05-05 06:34 | -34.98884 | 140.19759 | 32137 ft | 475 kts | 84° |
| 2026-05-05 06:34 | -34.98583 | 140.23715 | 32521 ft | 475 kts | 84° |
| 2026-05-05 06:34 | -34.98278 | 140.27720 | 32901 ft | 475 kts | 84° |
| 2026-05-05 06:35 | -34.97969 | 140.31730 | 33296 ft | 475 kts | 84° |
| 2026-05-05 06:35 | -34.97731 | 140.35744 | 33684 ft | 475 kts | 90° |
| 2026-05-05 06:35 | -34.97761 | 140.39769 | 34085 ft | 475 kts | 91° |
| 2026-05-05 06:35 | -34.97799 | 140.43793 | 34451 ft | 475 kts | 91° |
| 2026-05-05 06:36 | -34.97829 | 140.47811 | 34773 ft | 475 kts | 90° |
| 2026-05-05 06:36 | -34.97856 | 140.51758 | 35095 ft | 474 kts | 90° |
| 2026-05-05 06:36 | -34.97888 | 140.55772 | 35455 ft | 473 kts | 90° |
| 2026-05-05 06:36 | -34.97920 | 140.59783 | 35770 ft | 473 kts | 90° |
| 2026-05-05 06:37 | -34.97953 | 140.63737 | 36091 ft | 473 kts | 90° |
| 2026-05-05 06:37 | -34.97982 | 140.67745 | 36390 ft | 473 kts | 90° |
| 2026-05-05 06:37 | -34.98008 | 140.71755 | 36674 ft | 473 kts | 90° |
| 2026-05-05 06:37 | -34.98028 | 140.75765 | 36961 ft | 473 kts | 90° |
| 2026-05-05 06:38 | -34.98046 | 140.79775 | 37198 ft | 473 kts | 90° |
| 2026-05-05 06:38 | -34.98080 | 140.87840 | 37265 ft | 477 kts | 90° |
| 2026-05-05 06:39 | -34.98115 | 140.95938 | 37260 ft | 479 kts | 90° |
| 2026-05-05 06:39 | -34.98140 | 141.04002 | 37247 ft | 479 kts | 90° |
| 2026-05-05 06:40 | -34.98164 | 141.12111 | 37257 ft | 478 kts | 90° |
| 2026-05-05 06:40 | -34.98187 | 141.20225 | 37258 ft | 479 kts | 90° |
| 2026-05-05 06:41 | -34.98201 | 141.28349 | 37267 ft | 479 kts | 90° |
| 2026-05-05 06:41 | -34.98209 | 141.36400 | 37258 ft | 479 kts | 90° |
| 2026-05-05 06:42 | -34.98211 | 141.44528 | 37257 ft | 479 kts | 90° |
| 2026-05-05 06:42 | -34.98208 | 141.52653 | 37258 ft | 479 kts | 90° |
| 2026-05-05 06:43 | -34.98199 | 141.60711 | 37256 ft | 479 kts | 89° |
| 2026-05-05 06:43 | -34.98191 | 141.68827 | 37257 ft | 479 kts | 89° |
| 2026-05-05 06:44 | -34.98168 | 141.76945 | 37261 ft | 479 kts | 89° |
| 2026-05-05 06:44 | -34.98140 | 141.85067 | 37265 ft | 479 kts | 89° |
| 2026-05-05 06:45 | -34.98114 | 141.93197 | 37263 ft | 480 kts | 89° |
| 2026-05-05 06:45 | -34.98076 | 142.01323 | 37264 ft | 480 kts | 89° |
| 2026-05-05 06:46 | -34.98032 | 142.09407 | 37263 ft | 480 kts | 89° |
| 2026-05-05 06:46 | -34.97983 | 142.17547 | 37260 ft | 480 kts | 89° |
| 2026-05-05 06:47 | -34.97935 | 142.25687 | 37266 ft | 480 kts | 89° |
| 2026-05-05 06:47 | -34.97884 | 142.33773 | 37264 ft | 480 kts | 89° |
| 2026-05-05 06:48 | -34.97824 | 142.41908 | 37261 ft | 480 kts | 89° |
| 2026-05-05 06:48 | -34.97754 | 142.50054 | 37259 ft | 480 kts | 89° |
| 2026-05-05 06:49 | -34.97678 | 142.58203 | 37263 ft | 481 kts | 89° |
| 2026-05-05 06:49 | -34.97599 | 142.66357 | 37248 ft | 481 kts | 89° |
| 2026-05-05 06:50 | -34.97516 | 142.74510 | 37258 ft | 481 kts | 89° |
| 2026-05-05 06:50 | -34.97428 | 142.82664 | 37263 ft | 481 kts | 89° |
| 2026-05-05 06:51 | -34.97332 | 142.90767 | 37259 ft | 481 kts | 89° |
| 2026-05-05 06:51 | -34.97231 | 142.98916 | 37259 ft | 481 kts | 88° |
| 2026-05-05 06:52 | -34.97116 | 143.07079 | 37260 ft | 482 kts | 88° |
| 2026-05-05 06:52 | -34.97008 | 143.15249 | 37257 ft | 482 kts | 88° |
| 2026-05-05 06:53 | -34.96890 | 143.23423 | 37244 ft | 482 kts | 88° |
| 2026-05-05 06:53 | -34.96785 | 143.31591 | 37254 ft | 482 kts | 89° |
| 2026-05-05 06:54 | -34.96701 | 143.39775 | 37253 ft | 483 kts | 89° |
| 2026-05-05 06:54 | -34.96605 | 143.47907 | 37254 ft | 483 kts | 88° |
| 2026-05-05 06:55 | -34.96493 | 143.56098 | 37249 ft | 483 kts | 88° |
| 2026-05-05 06:55 | -34.96370 | 143.64296 | 37248 ft | 484 kts | 88° |
| 2026-05-05 06:56 | -34.96237 | 143.72501 | 37249 ft | 484 kts | 88° |
| 2026-05-05 06:56 | -34.96113 | 143.80701 | 37242 ft | 484 kts | 88° |
| 2026-05-05 06:57 | -34.95986 | 143.88776 | 37238 ft | 484 kts | 88° |
| 2026-05-05 06:57 | -34.95851 | 143.96984 | 37239 ft | 484 kts | 88° |
| 2026-05-05 06:58 | -34.95704 | 144.05196 | 37236 ft | 484 kts | 88° |
| 2026-05-05 06:58 | -34.95550 | 144.13408 | 37236 ft | 484 kts | 88° |
| 2026-05-05 06:59 | -34.95398 | 144.21620 | 37235 ft | 485 kts | 88° |
| 2026-05-05 06:59 | -34.95243 | 144.29837 | 37238 ft | 485 kts | 88° |
| 2026-05-05 07:00 | -34.95073 | 144.38050 | 37237 ft | 485 kts | 88° |
| 2026-05-05 07:00 | -34.94895 | 144.46223 | 37243 ft | 486 kts | 88° |
| 2026-05-05 07:01 | -34.94713 | 144.54454 | 37250 ft | 486 kts | 88° |
| 2026-05-05 07:01 | -34.94532 | 144.62687 | 37249 ft | 486 kts | 88° |
| 2026-05-05 07:02 | -34.94348 | 144.70846 | 37227 ft | 485 kts | 88° |
| 2026-05-05 07:02 | -34.94154 | 144.79066 | 37231 ft | 485 kts | 88° |
| 2026-05-05 07:03 | -34.93951 | 144.87295 | 37231 ft | 486 kts | 87° |
| 2026-05-05 07:03 | -34.93744 | 144.95460 | 37216 ft | 486 kts | 87° |
| 2026-05-05 07:04 | -34.93535 | 145.03687 | 37236 ft | 486 kts | 87° |
| 2026-05-05 07:04 | -34.93309 | 145.11918 | 37237 ft | 486 kts | 87° |
| 2026-05-05 07:05 | -34.93085 | 145.20155 | 37237 ft | 486 kts | 87° |
| 2026-05-05 07:05 | -34.92848 | 145.28395 | 37240 ft | 487 kts | 87° |
| 2026-05-05 07:06 | -34.92610 | 145.36577 | 37236 ft | 487 kts | 87° |
| 2026-05-05 07:06 | -34.92357 | 145.44826 | 37236 ft | 487 kts | 86° |
| 2026-05-05 07:07 | -34.92100 | 145.53077 | 37244 ft | 487 kts | 87° |
| 2026-05-05 07:07 | -34.91851 | 145.61332 | 37230 ft | 487 kts | 86° |
| 2026-05-05 07:08 | -34.91587 | 145.69587 | 37235 ft | 488 kts | 86° |
| 2026-05-05 07:08 | -34.91315 | 145.77789 | 37239 ft | 488 kts | 86° |
| 2026-05-05 07:09 | -34.91037 | 145.86039 | 37239 ft | 488 kts | 86° |
| 2026-05-05 07:09 | -34.90754 | 145.94302 | 37239 ft | 488 kts | 86° |
| 2026-05-05 07:10 | -34.90465 | 146.02565 | 37240 ft | 488 kts | 86° |
| 2026-05-05 07:10 | -34.90167 | 146.10831 | 37240 ft | 488 kts | 86° |
| 2026-05-05 07:11 | -34.89873 | 146.19093 | 37233 ft | 489 kts | 86° |
| 2026-05-05 07:11 | -34.89573 | 146.27365 | 37237 ft | 489 kts | 86° |
| 2026-05-05 07:12 | -34.89273 | 146.35583 | 37237 ft | 489 kts | 86° |
| 2026-05-05 07:12 | -34.88958 | 146.43861 | 37238 ft | 489 kts | 86° |
| 2026-05-05 07:13 | -34.88636 | 146.52141 | 37241 ft | 489 kts | 86° |
| 2026-05-05 07:13 | -34.88305 | 146.60412 | 37239 ft | 489 kts | 85° |
| 2026-05-05 07:14 | -34.87962 | 146.68693 | 37237 ft | 490 kts | 85° |
| 2026-05-05 07:14 | -34.87619 | 146.76975 | 37222 ft | 490 kts | 85° |
| 2026-05-05 07:15 | -34.87277 | 146.85203 | 37235 ft | 490 kts | 85° |
| 2026-05-05 07:15 | -34.86935 | 146.93477 | 37235 ft | 490 kts | 85° |
| 2026-05-05 07:16 | -34.86577 | 147.01761 | 37239 ft | 490 kts | 85° |
| 2026-05-05 07:16 | -34.86212 | 147.10046 | 37238 ft | 490 kts | 85° |
| 2026-05-05 07:17 | -34.85852 | 147.18263 | 37232 ft | 490 kts | 85° |
| 2026-05-05 07:17 | -34.85492 | 147.26492 | 37232 ft | 491 kts | 85° |
| 2026-05-05 07:18 | -34.85118 | 147.34788 | 37233 ft | 491 kts | 85° |
| 2026-05-05 07:18 | -34.84731 | 147.43087 | 37223 ft | 491 kts | 84° |
| 2026-05-05 07:19 | -34.84331 | 147.51388 | 37226 ft | 491 kts | 84° |
| 2026-05-05 07:19 | -34.83933 | 147.59639 | 37230 ft | 492 kts | 84° |
| 2026-05-05 07:20 | -34.83536 | 147.67947 | 37227 ft | 492 kts | 84° |
| 2026-05-05 07:20 | -34.83133 | 147.76251 | 37226 ft | 492 kts | 84° |
| 2026-05-05 07:21 | -34.82720 | 147.84568 | 37230 ft | 492 kts | 84° |
| 2026-05-05 07:21 | -34.82293 | 147.92888 | 37226 ft | 492 kts | 84° |
| 2026-05-05 07:22 | -34.81871 | 148.01155 | 37227 ft | 493 kts | 84° |
| 2026-05-05 07:22 | -34.81447 | 148.09476 | 37219 ft | 493 kts | 84° |
| 2026-05-05 07:23 | -34.81011 | 148.17807 | 37223 ft | 493 kts | 84° |
| 2026-05-05 07:23 | -34.80566 | 148.26141 | 37222 ft | 494 kts | 84° |
| 2026-05-05 07:24 | -34.80111 | 148.34479 | 37220 ft | 494 kts | 83° |
| 2026-05-05 07:24 | -34.79652 | 148.42811 | 37223 ft | 494 kts | 83° |
| 2026-05-05 07:25 | -34.79194 | 148.51156 | 37216 ft | 495 kts | 83° |
| 2026-05-05 07:25 | -34.78738 | 148.59452 | 37216 ft | 495 kts | 83° |
| 2026-05-05 07:26 | -34.78266 | 148.67811 | 37205 ft | 495 kts | 83° |
| 2026-05-05 07:26 | -34.77790 | 148.76107 | 37203 ft | 495 kts | 83° |
| 2026-05-05 07:27 | -34.76546 | 148.84263 | 37219 ft | 489 kts | 70° |
| 2026-05-05 07:27 | -34.74671 | 148.92225 | 37214 ft | 490 kts | 70° |
| 2026-05-05 07:28 | -34.72786 | 149.00126 | 37215 ft | 490 kts | 69° |
| 2026-05-05 07:28 | -34.70880 | 149.08064 | 37221 ft | 490 kts | 69° |
| 2026-05-05 07:29 | -34.68982 | 149.16017 | 37198 ft | 490 kts | 69° |
| 2026-05-05 07:29 | -34.67083 | 149.23976 | 37144 ft | 490 kts | 69° |
| 2026-05-05 07:29 | -34.66132 | 149.27945 | 36558 ft | 489 kts | 69° |
| 2026-05-05 07:30 | -34.65177 | 149.31910 | 35932 ft | 489 kts | 69° |
| 2026-05-05 07:30 | -34.63583 | 149.38488 | 34910 ft | 488 kts | 69° |
| 2026-05-05 07:30 | -34.62315 | 149.43710 | 34177 ft | 485 kts | 69° |
| 2026-05-05 07:31 | -34.61363 | 149.47645 | 33414 ft | 489 kts | 70° |
| 2026-05-05 07:31 | -34.60392 | 149.51638 | 32331 ft | 495 kts | 70° |
| 2026-05-05 07:31 | -34.59440 | 149.55549 | 31870 ft | 487 kts | 70° |
| 2026-05-05 07:31 | -34.58806 | 149.58159 | 31253 ft | 487 kts | 70° |
| 2026-05-05 07:32 | -34.57833 | 149.62152 | 29845 ft | 499 kts | 71° |
| 2026-05-05 07:32 | -34.56849 | 149.66180 | 28886 ft | 497 kts | 71° |
| 2026-05-05 07:32 | -34.55875 | 149.70164 | 28209 ft | 489 kts | 71° |
| 2026-05-05 07:32 | -34.54915 | 149.74098 | 27485 ft | 484 kts | 71° |
| 2026-05-05 07:33 | -34.53963 | 149.77986 | 26790 ft | 478 kts | 72° |
| 2026-05-05 07:33 | -34.53020 | 149.81832 | 26082 ft | 473 kts | 72° |
| 2026-05-05 07:33 | -34.52085 | 149.85638 | 25390 ft | 469 kts | 72° |
| 2026-05-05 07:33 | -34.51155 | 149.89410 | 24718 ft | 465 kts | 72° |
| 2026-05-05 07:34 | -34.50153 | 149.93107 | 24110 ft | 459 kts | 66° |
| 2026-05-05 07:34 | -34.48793 | 149.96517 | 23460 ft | 453 kts | 60° |
| 2026-05-05 07:34 | -34.47309 | 149.99853 | 22851 ft | 446 kts | 60° |
| 2026-05-05 07:34 | -34.45848 | 150.03139 | 22285 ft | 440 kts | 60° |
| 2026-05-05 07:35 | -34.44409 | 150.06384 | 21727 ft | 435 kts | 60° |
| 2026-05-05 07:35 | -34.42988 | 150.09595 | 21190 ft | 430 kts | 60° |
| 2026-05-05 07:35 | -34.41579 | 150.12779 | 20657 ft | 427 kts | 60° |
| 2026-05-05 07:35 | -34.40181 | 150.15932 | 20146 ft | 425 kts | 60° |
| 2026-05-05 07:36 | -34.38329 | 150.20091 | 19446 ft | 422 kts | 60° |
| 2026-05-05 07:36 | -34.37389 | 150.22196 | 19079 ft | 420 kts | 60° |
| 2026-05-05 07:36 | -34.36023 | 150.25251 | 18563 ft | 419 kts | 60° |
| 2026-05-05 07:36 | -34.34662 | 150.28296 | 17976 ft | 416 kts | 60° |
| 2026-05-05 07:37 | -34.33294 | 150.31362 | 17411 ft | 413 kts | 60° |
| 2026-05-05 07:37 | -34.31937 | 150.34402 | 16844 ft | 409 kts | 61° |
| 2026-05-05 07:37 | -34.30591 | 150.37417 | 16264 ft | 406 kts | 60° |
| 2026-05-05 07:37 | -34.29255 | 150.40410 | 15685 ft | 403 kts | 61° |
| 2026-05-05 07:38 | -34.27930 | 150.43382 | 15103 ft | 400 kts | 61° |
| 2026-05-05 07:38 | -34.26611 | 150.46332 | 14518 ft | 397 kts | 62° |
| 2026-05-05 07:38 | -34.25299 | 150.49261 | 13931 ft | 395 kts | 62° |
| 2026-05-05 07:38 | -34.24020 | 150.52111 | 13307 ft | 385 kts | 62° |
| 2026-05-05 07:39 | -34.22753 | 150.54927 | 12945 ft | 376 kts | 61° |
| 2026-05-05 07:39 | -34.21533 | 150.57645 | 12657 ft | 360 kts | 61° |
| 2026-05-05 07:39 | -34.20347 | 150.60282 | 11983 ft | 357 kts | 61° |
| 2026-05-05 07:39 | -34.19170 | 150.62895 | 11587 ft | 352 kts | 61° |
| 2026-05-05 07:40 | -34.18009 | 150.65482 | 11162 ft | 349 kts | 60° |
| 2026-05-05 07:40 | -34.16867 | 150.68034 | 10674 ft | 340 kts | 60° |
| 2026-05-05 07:40 | -34.15783 | 150.70461 | 10519 ft | 316 kts | 60° |
| 2026-05-05 07:40 | -34.14770 | 150.72723 | 10343 ft | 300 kts | 60° |
| 2026-05-05 07:41 | -34.13786 | 150.74907 | 10200 ft | 293 kts | 60° |
| 2026-05-05 07:41 | -34.12827 | 150.77037 | 10066 ft | 293 kts | 60° |
| 2026-05-05 07:41 | -34.11851 | 150.79192 | 9689 ft | 291 kts | 60° |
| 2026-05-05 07:41 | -34.10885 | 150.81324 | 9290 ft | 288 kts | 60° |
| 2026-05-05 07:42 | -34.09929 | 150.83431 | 8943 ft | 285 kts | 60° |
| 2026-05-05 07:42 | -34.08993 | 150.85497 | 8729 ft | 283 kts | 60° |
| 2026-05-05 07:42 | -34.08054 | 150.87579 | 8472 ft | 281 kts | 61° |
| 2026-05-05 07:42 | -34.07127 | 150.89644 | 8228 ft | 279 kts | 61° |
| 2026-05-05 07:43 | -34.06206 | 150.91693 | 7989 ft | 277 kts | 60° |
| 2026-05-05 07:43 | -34.05299 | 150.93707 | 7744 ft | 275 kts | 60° |
| 2026-05-05 07:43 | -34.04378 | 150.95752 | 7492 ft | 273 kts | 60° |
| 2026-05-05 07:43 | -34.03473 | 150.97762 | 7251 ft | 272 kts | 60° |
| 2026-05-05 07:44 | -34.02512 | 150.99677 | 7008 ft | 269 kts | 47° |
| 2026-05-05 07:44 | -34.01036 | 151.00955 | 6815 ft | 258 kts | 17° |
| 2026-05-05 07:44 | -33.99320 | 151.01198 | 6698 ft | 244 kts | 352° |
| 2026-05-05 07:44 | -33.97673 | 151.00933 | 6575 ft | 234 kts | 348° |
| 2026-05-05 07:45 | -33.96084 | 151.00613 | 6329 ft | 230 kts | 348° |
| 2026-05-05 07:45 | -33.94506 | 151.00312 | 6004 ft | 230 kts | 351° |
| 2026-05-05 07:45 | -33.92910 | 151.00113 | 5664 ft | 231 kts | 352° |
| 2026-05-05 07:45 | -33.91310 | 150.99920 | 5344 ft | 231 kts | 353° |
| 2026-05-05 07:46 | -33.89705 | 150.99716 | 5011 ft | 232 kts | 353° |
| 2026-05-05 07:46 | -33.88121 | 150.99496 | 4759 ft | 229 kts | 353° |
| 2026-05-05 07:46 | -33.86537 | 150.99270 | 4430 ft | 229 kts | 353° |
| 2026-05-05 07:46 | -33.84950 | 150.99049 | 4137 ft | 229 kts | 353° |
| 2026-05-05 07:47 | -33.83371 | 150.98832 | 3817 ft | 229 kts | 353° |
| 2026-05-05 07:47 | -33.81809 | 150.98609 | 3513 ft | 229 kts | 353° |
| 2026-05-05 07:47 | -33.80240 | 150.98755 | 3199 ft | 227 kts | 23° |
| 2026-05-05 07:47 | -33.78943 | 150.99766 | 3047 ft | 224 kts | 42° |
| 2026-05-05 07:48 | -33.77770 | 151.01007 | 3043 ft | 226 kts | 45° |
| 2026-05-05 07:48 | -33.76823 | 151.02468 | 3041 ft | 221 kts | 70° |
| 2026-05-05 07:48 | -33.76469 | 151.04242 | 3042 ft | 218 kts | 87° |
| 2026-05-05 07:48 | -33.76341 | 151.06024 | 3043 ft | 213 kts | 89° |
| 2026-05-05 07:49 | -33.76244 | 151.07809 | 3043 ft | 214 kts | 89° |
| 2026-05-05 07:49 | -33.76157 | 151.09598 | 3043 ft | 214 kts | 90° |
| 2026-05-05 07:49 | -33.76086 | 151.11373 | 3040 ft | 207 kts | 96° |
| 2026-05-05 07:49 | -33.76528 | 151.12917 | 3038 ft | 193 kts | 131° |
| 2026-05-05 07:50 | -33.77402 | 151.14040 | 3062 ft | 175 kts | 144° |
| 2026-05-05 07:50 | -33.78453 | 151.14532 | 3035 ft | 155 kts | 175° |
| 2026-05-05 07:50 | -33.79459 | 151.14240 | 2762 ft | 154 kts | 208° |
| 2026-05-05 07:50 | -33.80418 | 151.13645 | 2481 ft | 155 kts | 205° |
| 2026-05-05 07:51 | -33.81390 | 151.13061 | 2199 ft | 157 kts | 205° |
| 2026-05-05 07:51 | -33.82438 | 151.12771 | 1923 ft | 157 kts | 173° |
| 2026-05-05 07:51 | -33.83422 | 151.13276 | 1677 ft | 149 kts | 146° |
| 2026-05-05 07:51 | -33.84176 | 151.14069 | 1352 ft | 139 kts | 143° |
| 2026-05-05 07:52 | -33.84934 | 151.14725 | 1146 ft | 132 kts | 151° |
| 2026-05-05 07:52 | -33.85729 | 151.15213 | 1149 ft | 128 kts | 160° |
| 2026-05-05 07:52 | -33.86587 | 151.15557 | 1169 ft | 131 kts | 167° |
| 2026-05-05 07:52 | -33.87472 | 151.15788 | 1043 ft | 129 kts | 171° |
| 2026-05-05 07:53 | -33.88359 | 151.15972 | 973 ft | 131 kts | 168° |
| 2026-05-05 07:53 | -33.89237 | 151.16187 | 859 ft | 129 kts | 170° |
| 2026-05-05 07:53 | -33.90130 | 151.16431 | 649 ft | 131 kts | 166° |
| 2026-05-05 07:53 | -33.91010 | 151.16670 | 447 ft | 131 kts | 169° |
| 2026-05-05 07:54 | -33.91892 | 151.16868 | 256 ft | 129 kts | 168° |
| 2026-05-05 07:54 | -33.92765 | 151.17104 | 114 ft | 129 kts | 165° |
| 2026-05-05 07:54 | -33.93611 | 151.17342 | 17 ft | 113 kts | 167° |
| 2026-05-05 07:54 | -33.94203 | 151.17499 | 26 ft | 47 kts | 167° |
| 2026-05-05 07:55 | -33.94344 | 151.17575 | 27 ft | 16 kts | 145° |
| 2026-05-05 07:55 | -33.94446 | 151.17654 | 27 ft | 18 kts | 148° |
| 2026-05-05 07:55 | -33.94467 | 151.17669 | 26 ft | 0 kts | 148° |
| 2026-05-05 07:56 | -33.94470 | 151.17672 | 26 ft | 2 kts | 148° |
| 2026-05-05 07:56 | -33.94479 | 151.17679 | 26 ft | 0 kts | 148° |
| 2026-05-05 07:56 | -33.94483 | 151.17682 | 26 ft | 2 kts | 148° |
| 2026-05-05 07:56 | -33.94506 | 151.17703 | 26 ft | 6 kts | 135° |
| 2026-05-05 07:57 | -33.94517 | 151.17770 | 23 ft | 9 kts | 71° |
| 2026-05-05 07:57 | -33.94474 | 151.17776 | 23 ft | 7 kts | 347° |
| 2026-05-05 07:57 | -33.94418 | 151.17757 | 24 ft | 10 kts | 344° |
| 2026-05-05 07:57 | -33.94343 | 151.17734 | 22 ft | 13 kts | 346° |
| 2026-05-05 07:58 | -33.94245 | 151.17705 | 23 ft | 12 kts | 346° |
| 2026-05-05 07:58 | -33.94158 | 151.17680 | 22 ft | 14 kts | 347° |
| 2026-05-05 07:58 | -33.94056 | 151.17651 | 22 ft | 17 kts | 347° |
| 2026-05-05 07:58 | -33.93941 | 151.17619 | 20 ft | 13 kts | 347° |
| 2026-05-05 07:59 | -33.93874 | 151.17654 | 19 ft | 12 kts | 70° |
| 2026-05-05 07:59 | -33.93857 | 151.17726 | 20 ft | 3 kts | 75° |
| 2026-05-05 07:59 | -33.93847 | 151.17753 | 21 ft | 4 kts | 57° |
| 2026-05-05 07:59 | -33.93823 | 151.17774 | 21 ft | 4 kts | 25° |
| 2026-05-05 08:00 | -33.93794 | 151.17781 | 22 ft | 4 kts | 10° |
| 2026-05-05 08:00 | -33.93774 | 151.17786 | 24 ft | 3 kts | 10° |
| 2026-05-05 08:00 | -33.93751 | 151.17791 | 27 ft | 1 kts | 10° |
| 2026-05-05 08:00 | -33.93693 | 151.17803 | 31 ft | 16 kts | 10° |
| 2026-05-05 08:01 | -33.93615 | 151.17821 | 31 ft | 10 kts | 10° |
| 2026-05-05 08:01 | -33.93567 | 151.17830 | 31 ft | 7 kts | 8° |
| 2026-05-05 08:01 | -33.93538 | 151.17828 | 31 ft | 5 kts | 330° |
| 2026-05-05 08:01 | -33.93529 | 151.17792 | 31 ft | 5 kts | 280° |
| 2026-05-05 08:02 | -33.93528 | 151.17785 | 31 ft | 0 kts | 280° |